Time;durP1;ratioP1;P1;durP2;ratioP2;P2;SDS_P1;SDS_P2;PMS_P1;PMS_P2;Temp;Humidity;BMP_temperature;BMP_pressure;BME280_temperature;BME280_humidity;BME280_pressure;Samples;Min_cycle;Max_cycle;Signal;HPM_P1;HPM_P2
2021/07/02 00:02:19;;;;;;;11.27;4.78;;;;;;;;;;4986053;28;20022;-72
2021/07/02 00:04:45;;;;;;;7.93;4.05;;;;;;;;;;4986280;28;20033;-72
2021/07/02 00:07:10;;;;;;;6.80;3.88;;;;;;;;;;4986112;28;20713;-71
2021/07/02 00:09:35;;;;;;;8.95;4.30;;;;;;;;;;5005099;28;20069;-71
2021/07/02 00:12:01;;;;;;;9.52;3.92;;;;;;;;;;4995564;28;20045;-71
2021/07/02 00:14:26;;;;;;;8.23;3.67;;;;;;;;;;4989921;28;20041;-71
2021/07/02 00:16:52;;;;;;;8.07;3.88;;;;;;;;;;4998067;28;20382;-71
2021/07/02 00:19:18;;;;;;;11.75;4.32;;;;;;;;;;5009127;28;20512;-72
2021/07/02 00:21:44;;;;;;;8.50;4.32;;;;;;;;;;5008285;28;20022;-72
2021/07/02 00:24:09;;;;;;;7.45;4.00;;;;;;;;;;5008560;28;20025;-72
2021/07/02 00:26:36;;;;;;;8.27;4.20;;;;;;;;;;5009436;28;20028;-71
2021/07/02 00:29:03;;;;;;;7.60;3.88;;;;;;;;;;5008446;28;20033;-72
2021/07/02 00:31:28;;;;;;;7.60;4.70;;;;;;;;;;4982119;28;20085;-72
2021/07/02 00:33:53;;;;;;;6.97;4.05;;;;;;;;;;4989785;28;20027;-72
2021/07/02 00:36:19;;;;;;;7.38;3.97;;;;;;;;;;5009123;28;20068;-72
2021/07/02 00:38:44;;;;;;;7.13;4.40;;;;;;;;;;5001832;28;20022;-72
2021/07/02 00:41:09;;;;;;;8.25;3.92;;;;;;;;;;5001476;28;20026;-72
2021/07/02 00:43:37;;;;;;;9.52;4.80;;;;;;;;;;5008607;28;20112;-72
2021/07/02 00:46:03;;;;;;;7.53;4.35;;;;;;;;;;5008554;28;20072;-71
2021/07/02 00:48:28;;;;;;;7.75;3.75;;;;;;;;;;5008452;28;20033;-72
2021/07/02 00:50:53;;;;;;;6.28;3.53;;;;;;;;;;5008926;28;20029;-72
2021/07/02 00:53:22;;;;;;;6.10;3.72;;;;;;;;;;5008932;28;20555;-71
2021/07/02 00:55:48;;;;;;;10.18;4.93;;;;;;;;;;4999349;28;20539;-72
2021/07/02 00:58:14;;;;;;;8.70;4.03;;;;;;;;;;4987513;28;20838;-72
2021/07/02 01:00:39;;;;;;;8.15;4.03;;;;;;;;;;4989296;28;20113;-72
2021/07/02 01:03:04;;;;;;;8.10;3.88;;;;;;;;;;4989153;28;20030;-72
2021/07/02 01:05:30;;;;;;;8.30;3.60;;;;;;;;;;4988480;28;20105;-72
2021/07/02 01:07:55;;;;;;;10.07;4.07;;;;;;;;;;4993120;28;20049;-71
2021/07/02 01:10:21;;;;;;;9.25;4.45;;;;;;;;;;5008733;28;20041;-71
2021/07/02 01:12:46;;;;;;;5.68;3.35;;;;;;;;;;5008585;28;20022;-71
2021/07/02 01:15:38;;;;;;;8.32;3.67;;;;;;;;;;5008463;28;20030;-72
2021/07/02 01:18:05;;;;;;;6.70;3.60;;;;;;;;;;4987684;28;20038;-72
2021/07/02 01:20:31;;;;;;;9.18;4.50;;;;;;;;;;4988982;28;20455;-72
2021/07/02 01:22:57;;;;;;;8.40;3.78;;;;;;;;;;4988653;28;20486;-72
2021/07/02 01:25:28;;;;;;;7.38;4.07;;;;;;;;;;4989159;28;20019;-71
2021/07/02 01:27:53;;;;;;;9.13;4.15;;;;;;;;;;4988375;28;20062;-71
2021/07/02 01:30:19;;;;;;;9.38;3.97;;;;;;;;;;4988967;28;20170;-72
2021/07/02 01:32:44;;;;;;;10.80;5.07;;;;;;;;;;4988589;28;20030;-72
2021/07/02 01:35:10;;;;;;;7.05;3.42;;;;;;;;;;4988231;28;20033;-71
2021/07/02 01:37:35;;;;;;;7.53;4.20;;;;;;;;;;4987964;28;20076;-72
2021/07/02 01:40:01;;;;;;;8.43;4.40;;;;;;;;;;5007722;28;20029;-71
2021/07/02 01:42:26;;;;;;;9.35;4.60;;;;;;;;;;5008098;28;20393;-71
2021/07/02 01:44:52;;;;;;;7.88;4.53;;;;;;;;;;5007850;28;20022;-72
2021/07/02 01:47:17;;;;;;;8.52;4.53;;;;;;;;;;4987826;28;20041;-72
2021/07/02 01:49:42;;;;;;;10.52;4.47;;;;;;;;;;4988385;28;20031;-72
2021/07/02 01:52:08;;;;;;;8.98;4.28;;;;;;;;;;4987911;28;20107;-71
2021/07/02 01:54:33;;;;;;;7.90;4.28;;;;;;;;;;4995953;28;20053;-72
2021/07/02 01:56:58;;;;;;;9.95;4.53;;;;;;;;;;4993505;28;20022;-72
2021/07/02 01:59:24;;;;;;;8.88;3.65;;;;;;;;;;4991792;28;20409;-71
2021/07/02 02:01:49;;;;;;;9.52;4.78;;;;;;;;;;4988149;28;20030;-72
2021/07/02 02:04:15;;;;;;;7.75;4.63;;;;;;;;;;4987224;28;20034;-71
2021/07/02 02:06:41;;;;;;;10.05;4.85;;;;;;;;;;4987740;28;20070;-71
2021/07/02 02:09:06;;;;;;;8.55;4.32;;;;;;;;;;4994697;28;20085;-72
2021/07/02 02:11:33;;;;;;;9.15;4.82;;;;;;;;;;4991989;28;20637;-72
2021/07/02 02:13:58;;;;;;;7.85;3.97;;;;;;;;;;4987460;28;20425;-72
2021/07/02 02:16:24;;;;;;;8.75;4.90;;;;;;;;;;4988612;28;20030;-72
2021/07/02 02:18:50;;;;;;;10.60;5.07;;;;;;;;;;4986578;28;20050;-72
2021/07/02 02:21:16;;;;;;;6.97;4.25;;;;;;;;;;4987511;28;20053;-71
2021/07/02 02:23:41;;;;;;;11.48;4.68;;;;;;;;;;4987870;28;20482;-71
2021/07/02 02:26:06;;;;;;;9.60;4.85;;;;;;;;;;4987333;28;20485;-72
2021/07/02 02:28:32;;;;;;;9.43;5.38;;;;;;;;;;4987151;28;20026;-71
2021/07/02 02:30:57;;;;;;;11.38;5.22;;;;;;;;;;4986960;28;20041;-71
2021/07/02 02:33:22;;;;;;;10.35;5.13;;;;;;;;;;4986260;28;20034;-71
2021/07/02 02:35:48;;;;;;;11.25;5.47;;;;;;;;;;4994639;28;20022;-71
2021/07/02 02:38:13;;;;;;;7.63;4.25;;;;;;;;;;5002984;28;20030;-72
2021/07/02 02:40:38;;;;;;;8.77;5.10;;;;;;;;;;5005570;28;20026;-72
2021/07/02 02:43:04;;;;;;;10.10;5.28;;;;;;;;;;4985545;28;20041;-72
2021/07/02 02:45:29;;;;;;;11.73;5.63;;;;;;;;;;4987169;28;20018;-71
2021/07/02 02:47:55;;;;;;;11.45;5.57;;;;;;;;;;4999880;28;20441;-70
2021/07/02 02:50:20;;;;;;;9.70;5.10;;;;;;;;;;5006712;28;20034;-71
2021/07/02 02:52:46;;;;;;;10.48;5.10;;;;;;;;;;5006674;28;20079;-71
2021/07/02 02:55:11;;;;;;;9.57;5.05;;;;;;;;;;5000970;28;20029;-71
2021/07/02 02:57:37;;;;;;;9.63;4.97;;;;;;;;;;4984595;28;20033;-71
2021/07/02 03:00:08;;;;;;;10.40;5.45;;;;;;;;;;4986694;28;20046;-72
2021/07/02 03:02:34;;;;;;;11.40;5.07;;;;;;;;;;4987129;28;20073;-71
2021/07/02 03:04:59;;;;;;;9.63;5.32;;;;;;;;;;4986050;28;20311;-72
2021/07/02 03:07:24;;;;;;;11.93;5.50;;;;;;;;;;4985892;28;20034;-71
2021/07/02 03:09:50;;;;;;;14.35;5.35;;;;;;;;;;4986531;28;20030;-72
2021/07/02 03:12:15;;;;;;;11.70;5.38;;;;;;;;;;4987059;28;20394;-71
2021/07/02 03:14:41;;;;;;;9.38;5.32;;;;;;;;;;4987032;28;20537;-71
2021/07/02 03:17:06;;;;;;;11.00;5.55;;;;;;;;;;4997206;28;20049;-71
2021/07/02 03:19:32;;;;;;;11.13;5.47;;;;;;;;;;5006836;28;20041;-71
2021/07/02 03:21:57;;;;;;;10.63;5.22;;;;;;;;;;5006167;28;20033;-72
2021/07/02 03:24:23;;;;;;;9.50;6.03;;;;;;;;;;5006063;28;20026;-71
2021/07/02 03:26:48;;;;;;;11.60;5.60;;;;;;;;;;4991329;28;20038;-71
2021/07/02 03:29:13;;;;;;;10.27;5.25;;;;;;;;;;4986654;28;20030;-72
2021/07/02 03:31:39;;;;;;;8.57;4.95;;;;;;;;;;4984800;28;20026;-72
2021/07/02 03:34:04;;;;;;;9.70;5.45;;;;;;;;;;4984439;28;20036;-72
2021/07/02 03:36:30;;;;;;;11.93;5.72;;;;;;;;;;4985553;28;20537;-72
2021/07/02 03:38:56;;;;;;;10.85;5.72;;;;;;;;;;4984987;28;20022;-71
2021/07/02 03:41:21;;;;;;;13.95;5.95;;;;;;;;;;4986751;28;20467;-72
2021/07/02 03:43:47;;;;;;;8.02;4.78;;;;;;;;;;4986946;28;20030;-71
2021/07/02 03:46:12;;;;;;;7.90;4.78;;;;;;;;;;4986476;28;20052;-71
2021/07/02 03:48:37;;;;;;;9.57;5.70;;;;;;;;;;5008806;28;20030;-71
2021/07/02 03:51:03;;;;;;;10.82;6.10;;;;;;;;;;5010158;28;20022;-72
2021/07/02 03:53:29;;;;;;;8.52;5.20;;;;;;;;;;4992201;28;20027;-72
2021/07/02 03:55:55;;;;;;;9.57;5.43;;;;;;;;;;4987057;28;20077;-71
2021/07/02 03:58:20;;;;;;;9.27;4.88;;;;;;;;;;4987933;28;20077;-71
2021/07/02 04:00:45;;;;;;;9.45;5.43;;;;;;;;;;4988276;28;20640;-71
2021/07/02 04:03:11;;;;;;;9.60;5.20;;;;;;;;;;4988559;28;20081;-71
2021/07/02 04:05:40;;;;;;;11.50;5.43;;;;;;;;;;4987585;28;20022;-71
2021/07/02 04:08:05;;;;;;;8.88;5.60;;;;;;;;;;4994990;28;20092;-71
2021/07/02 04:10:31;;;;;;;7.38;4.82;;;;;;;;;;4988709;28;20030;-71
2021/07/02 04:12:56;;;;;;;10.10;5.28;;;;;;;;;;4988488;28;20032;-71
2021/07/02 04:15:21;;;;;;;9.52;4.88;;;;;;;;;;4987810;28;20080;-71
2021/07/02 04:17:47;;;;;;;8.93;5.20;;;;;;;;;;4988684;28;20461;-71
2021/07/02 04:20:12;;;;;;;10.25;5.15;;;;;;;;;;4990401;28;20613;-71
2021/07/02 04:22:38;;;;;;;11.02;5.13;;;;;;;;;;4989660;28;20478;-72
2021/07/02 04:25:06;;;;;;;10.45;5.65;;;;;;;;;;4989725;28;20113;-72
2021/07/02 04:27:31;;;;;;;8.10;4.90;;;;;;;;;;4989530;28;20037;-72
2021/07/02 04:29:57;;;;;;;8.77;5.28;;;;;;;;;;4989459;28;20033;-72
2021/07/02 04:32:22;;;;;;;7.35;4.25;;;;;;;;;;4989656;28;20066;-72
2021/07/02 04:34:47;;;;;;;8.98;4.70;;;;;;;;;;4989262;28;20100;-71
2021/07/02 04:37:13;;;;;;;8.10;5.65;;;;;;;;;;4989419;28;20089;-71
2021/07/02 04:39:38;;;;;;;9.15;5.60;;;;;;;;;;5009321;28;20032;-72
2021/07/02 04:42:04;;;;;;;8.50;5.13;;;;;;;;;;4969558;28;20031;-72
2021/07/02 04:44:29;;;;;;;8.88;5.32;;;;;;;;;;4984068;28;20030;-72
2021/07/02 04:46:55;;;;;;;10.10;4.97;;;;;;;;;;4991535;28;20543;-72
2021/07/02 04:49:20;;;;;;;9.40;5.00;;;;;;;;;;4989821;28;20039;-72
2021/07/02 04:51:47;;;;;;;8.13;4.75;;;;;;;;;;4987099;28;20026;-71
2021/07/02 04:54:13;;;;;;;9.60;5.43;;;;;;;;;;4987344;28;20034;-72
2021/07/02 04:56:38;;;;;;;7.63;4.47;;;;;;;;;;4984442;28;20026;-72
2021/07/02 04:59:03;;;;;;;8.70;4.65;;;;;;;;;;4986458;28;20109;-72
2021/07/02 05:01:29;;;;;;;9.10;5.43;;;;;;;;;;4987595;28;20025;-72
2021/07/02 05:03:54;;;;;;;7.88;4.72;;;;;;;;;;4989543;28;20030;-71
2021/07/02 05:06:19;;;;;;;8.57;4.53;;;;;;;;;;4990415;28;20474;-72
2021/07/02 05:08:45;;;;;;;8.80;6.70;;;;;;;;;;4994273;28;20041;-72
2021/07/02 05:11:11;;;;;;;11.38;5.15;;;;;;;;;;4986540;28;20027;-72
2021/07/02 05:13:38;;;;;;;10.13;4.93;;;;;;;;;;4986593;28;20022;-72
2021/07/02 05:16:04;;;;;;;9.27;4.68;;;;;;;;;;4987416;28;20150;-71
2021/07/02 05:18:30;;;;;;;6.50;4.05;;;;;;;;;;4993523;28;20030;-72
2021/07/02 05:20:55;;;;;;;9.88;4.20;;;;;;;;;;5000693;28;20113;-72
2021/07/02 05:23:20;;;;;;;8.10;4.78;;;;;;;;;;4989882;28;20030;-72
2021/07/02 05:25:46;;;;;;;8.43;5.22;;;;;;;;;;4988796;28;20131;-72
2021/07/02 05:28:11;;;;;;;6.53;3.95;;;;;;;;;;4984244;28;20564;-72
2021/07/02 05:30:36;;;;;;;9.15;4.38;;;;;;;;;;4986521;28;20030;-72
2021/07/02 05:33:02;;;;;;;6.90;4.30;;;;;;;;;;4995298;28;20113;-72
2021/07/02 05:35:27;;;;;;;7.28;3.95;;;;;;;;;;4987282;28;20101;-72
2021/07/02 05:37:53;;;;;;;7.82;4.28;;;;;;;;;;5003145;28;20036;-72
2021/07/02 05:40:19;;;;;;;5.80;3.70;;;;;;;;;;4991490;28;20061;-73
2021/07/02 05:42:45;;;;;;;7.22;3.97;;;;;;;;;;4987283;28;20026;-72
2021/07/02 05:45:10;;;;;;;7.88;3.80;;;;;;;;;;5002767;28;20077;-73
2021/07/02 05:47:52;;;;;;;8.80;3.75;;;;;;;;;;4997732;28;20491;-72
2021/07/02 05:50:18;;;;;;;6.95;4.03;;;;;;;;;;5007641;28;20105;-72
2021/07/02 05:52:46;;;;;;;6.28;3.92;;;;;;;;;;5007788;28;20120;-72
2021/07/02 05:55:12;;;;;;;8.70;3.67;;;;;;;;;;5008013;28;20025;-73
2021/07/02 05:57:39;;;;;;;6.82;3.90;;;;;;;;;;5007337;28;20420;-73
2021/07/02 06:00:05;;;;;;;7.53;3.95;;;;;;;;;;5007599;28;20045;-72
2021/07/02 06:02:31;;;;;;;8.43;3.47;;;;;;;;;;5007763;28;20049;-72
2021/07/02 06:04:56;;;;;;;6.57;4.05;;;;;;;;;;4997840;28;20061;-73
2021/07/02 06:07:21;;;;;;;6.30;3.65;;;;;;;;;;5001030;28;20034;-72
2021/07/02 06:09:46;;;;;;;6.72;3.80;;;;;;;;;;4986085;28;20605;-72
2021/07/02 06:12:12;;;;;;;5.88;4.00;;;;;;;;;;4986046;28;20062;-72
2021/07/02 06:14:37;;;;;;;7.45;3.67;;;;;;;;;;4976338;28;20110;-72
2021/07/02 06:17:03;;;;;;;5.57;3.33;;;;;;;;;;4988349;28;20049;-73
2021/07/02 06:19:28;;;;;;;6.25;3.55;;;;;;;;;;4985973;28;20082;-72
2021/07/02 06:21:54;;;;;;;5.60;3.65;;;;;;;;;;4991514;28;20400;-72
2021/07/02 06:24:19;;;;;;;7.60;4.25;;;;;;;;;;4989944;28;20030;-72
2021/07/02 06:26:44;;;;;;;7.15;3.83;;;;;;;;;;4985510;28;20022;-73
2021/07/02 06:29:10;;;;;;;7.47;4.18;;;;;;;;;;4985474;28;20121;-72
2021/07/02 06:31:35;;;;;;;6.80;3.72;;;;;;;;;;4985594;28;20202;-72
2021/07/02 06:34:00;;;;;;;7.15;3.90;;;;;;;;;;4984101;28;20026;-72
2021/07/02 06:36:26;;;;;;;7.40;3.88;;;;;;;;;;4987690;28;20457;-72
2021/07/02 06:38:51;;;;;;;5.93;4.07;;;;;;;;;;5000698;28;20221;-72
2021/07/02 06:41:16;;;;;;;5.95;4.07;;;;;;;;;;5004827;28;20417;-72
2021/07/02 06:43:42;;;;;;;9.63;4.40;;;;;;;;;;4987723;28;20050;-72
2021/07/02 06:46:07;;;;;;;6.85;3.90;;;;;;;;;;4978132;28;20031;-72
2021/07/02 06:48:32;;;;;;;5.60;3.90;;;;;;;;;;4996488;28;20026;-72
2021/07/02 06:50:58;;;;;;;6.57;3.80;;;;;;;;;;4987748;28;20034;-72
2021/07/02 06:53:24;;;;;;;6.72;3.90;;;;;;;;;;4991254;28;20073;-72
2021/07/02 06:55:51;;;;;;;6.30;4.40;;;;;;;;;;4991581;28;20018;-72
2021/07/02 06:58:17;;;;;;;6.05;3.90;;;;;;;;;;4991066;28;20026;-72
2021/07/02 07:00:42;;;;;;;5.90;3.55;;;;;;;;;;4987691;28;20030;-72
2021/07/02 07:03:08;;;;;;;5.78;4.00;;;;;;;;;;4984634;28;20404;-73
2021/07/02 07:05:34;;;;;;;7.13;4.18;;;;;;;;;;4984819;28;20085;-72
2021/07/02 07:08:02;;;;;;;6.22;3.60;;;;;;;;;;4995257;28;20077;-73
2021/07/02 07:10:27;;;;;;;7.22;3.80;;;;;;;;;;4984490;28;20678;-73
2021/07/02 07:12:53;;;;;;;7.63;3.50;;;;;;;;;;4985068;28;20038;-72
2021/07/02 07:15:19;;;;;;;5.82;3.67;;;;;;;;;;4984844;28;20122;-72
2021/07/02 07:17:44;;;;;;;5.57;3.28;;;;;;;;;;4986427;28;20089;-73
2021/07/02 07:20:10;;;;;;;5.72;3.53;;;;;;;;;;4984881;28;20042;-72
2021/07/02 07:22:36;;;;;;;8.48;3.53;;;;;;;;;;4997473;28;20037;-73
2021/07/02 07:25:01;;;;;;;7.82;3.88;;;;;;;;;;4984903;28;20023;-72
2021/07/02 07:27:27;;;;;;;6.28;3.58;;;;;;;;;;4983136;28;20037;-73
2021/07/02 07:47:58;;;;;;;6.95;3.80;;;;;;;;;;5084421;27;20377;-72
2021/07/02 07:50:25;;;;;;;6.18;3.65;;;;;;;;;;5080521;28;20530;-72
2021/07/02 07:52:54;;;;;;;5.68;3.50;;;;;;;;;;5061476;28;20607;-74
2021/07/02 07:55:21;;;;;;;8.18;3.42;;;;;;;;;;5060647;28;20116;-75
2021/07/02 07:57:46;;;;;;;9.93;3.92;;;;;;;;;;5052891;28;20035;-72
2021/07/02 08:00:12;;;;;;;6.88;3.50;;;;;;;;;;5043366;28;20028;-72
2021/07/02 08:02:38;;;;;;;7.65;3.97;;;;;;;;;;5060862;28;20033;-72
2021/07/02 08:05:04;;;;;;;6.35;3.10;;;;;;;;;;5060776;28;20766;-72
2021/07/02 08:07:37;;;;;;;7.10;3.78;;;;;;;;;;5044989;28;20112;-72
2021/07/02 08:10:09;;;;;;;6.63;3.60;;;;;;;;;;5062122;28;20028;-72
2021/07/02 08:12:34;;;;;;;5.57;3.78;;;;;;;;;;5058374;28;20487;-72
2021/07/02 08:15:00;;;;;;;6.43;4.13;;;;;;;;;;5065343;28;20028;-72
2021/07/02 08:17:29;;;;;;;6.85;3.85;;;;;;;;;;5066943;28;20033;-72
2021/07/02 08:19:56;;;;;;;6.28;3.30;;;;;;;;;;5060188;28;20103;-72
2021/07/02 08:22:22;;;;;;;6.55;3.78;;;;;;;;;;5042831;28;20156;-72
2021/07/02 08:24:47;;;;;;;6.75;3.90;;;;;;;;;;5042759;28;20665;-72
2021/07/02 08:27:12;;;;;;;5.15;3.60;;;;;;;;;;5060144;28;20502;-73
2021/07/02 08:29:38;;;;;;;9.55;4.30;;;;;;;;;;5060732;28;20033;-72
2021/07/02 08:32:03;;;;;;;6.57;3.85;;;;;;;;;;5060573;28;20029;-72
2021/07/02 08:34:29;;;;;;;6.85;4.13;;;;;;;;;;5059746;28;20020;-72
2021/07/02 08:36:54;;;;;;;7.57;3.92;;;;;;;;;;5061626;28;20023;-72
2021/07/02 08:39:20;;;;;;;5.82;3.80;;;;;;;;;;5064008;28;20025;-71
2021/07/02 08:41:45;;;;;;;6.45;4.72;;;;;;;;;;5060936;28;20021;-72
2021/07/02 08:44:11;;;;;;;6.68;4.65;;;;;;;;;;5045251;28;20039;-72
2021/07/02 08:46:37;;;;;;;6.35;4.18;;;;;;;;;;5060574;28;20024;-71
2021/07/02 08:49:04;;;;;;;6.90;3.97;;;;;;;;;;5059124;28;20055;-71
2021/07/02 08:51:31;;;;;;;6.20;4.28;;;;;;;;;;5059690;28;20099;-72
2021/07/02 08:53:57;;;;;;;7.68;3.97;;;;;;;;;;5042283;28;20024;-75
2021/07/02 08:56:23;;;;;;;7.82;4.65;;;;;;;;;;5060682;28;20029;-73
2021/07/02 08:58:48;;;;;;;7.03;4.82;;;;;;;;;;5048371;28;20064;-72
2021/07/02 09:01:38;;;;;;;7.47;3.85;;;;;;;;;;5046877;28;20388;-74
2021/07/02 09:04:18;;;;;;;7.68;3.88;;;;;;;;;;5028192;28;20613;-74
2021/07/02 09:06:58;;;;;;;6.03;3.55;;;;;;;;;;5027380;28;20060;-74
2021/07/02 09:09:23;;;;;;;6.43;3.60;;;;;;;;;;5044818;28;20025;-73
2021/07/02 09:11:49;;;;;;;7.50;4.32;;;;;;;;;;5046522;28;20499;-72
2021/07/02 09:14:23;;;;;;;6.53;3.63;;;;;;;;;;5047318;28;20454;-73
2021/07/02 09:16:48;;;;;;;6.70;4.20;;;;;;;;;;5045840;28;20115;-75
2021/07/02 09:19:34;;;;;;;6.20;4.10;;;;;;;;;;5027765;28;20771;-74
2021/07/02 09:22:21;;;;;;;7.55;4.47;;;;;;;;;;5046897;28;20108;-74
2021/07/02 09:24:49;;;;;;;7.40;3.63;;;;;;;;;;5045310;28;20099;-73
2021/07/02 09:27:28;;;;;;;6.78;3.97;;;;;;;;;;5046613;28;20028;-73
2021/07/02 09:30:05;;;;;;;6.13;3.40;;;;;;;;;;5050454;28;20025;-72
2021/07/02 09:32:32;;;;;;;7.07;4.10;;;;;;;;;;5042670;28;20318;-75
2021/07/02 09:34:59;;;;;;;6.30;3.90;;;;;;;;;;5046723;28;20024;-75
2021/07/02 09:37:28;;;;;;;6.65;4.15;;;;;;;;;;5044002;28;20028;-73
2021/07/02 09:39:53;;;;;;;6.53;3.83;;;;;;;;;;5044277;28;20021;-73
2021/07/02 09:42:37;;;;;;;5.57;3.33;;;;;;;;;;5042656;28;20407;-72
2021/07/02 09:45:10;;;;;;;5.97;3.63;;;;;;;;;;5048006;28;20031;-72
2021/07/02 09:47:36;;;;;;;5.53;3.78;;;;;;;;;;5046337;28;20483;-72
2021/07/02 09:50:22;;;;;;;5.20;3.47;;;;;;;;;;5056495;28;20029;-73
2021/07/02 09:52:51;;;;;;;5.72;3.45;;;;;;;;;;5033879;28;20028;-72
2021/07/02 09:55:19;;;;;;;6.43;3.95;;;;;;;;;;5054256;28;20021;-73
2021/07/02 09:57:45;;;;;;;5.40;3.50;;;;;;;;;;5052621;28;20025;-72
2021/07/02 10:00:16;;;;;;;5.90;3.03;;;;;;;;;;5049062;28;20489;-72
2021/07/02 10:02:52;;;;;;;8.20;3.53;;;;;;;;;;5052761;28;20036;-73
2021/07/02 10:05:18;;;;;;;5.28;3.00;;;;;;;;;;5045657;28;20021;-74
2021/07/02 10:07:58;;;;;;;7.20;3.85;;;;;;;;;;5047057;28;20086;-72
2021/07/02 10:10:25;;;;;;;6.03;3.75;;;;;;;;;;5044152;28;20060;-72
2021/07/02 10:12:52;;;;;;;5.57;3.22;;;;;;;;;;5046172;28;20075;-72
2021/07/02 10:15:18;;;;;;;3.95;2.60;;;;;;;;;;5056699;28;20032;-72
2021/07/02 10:17:44;;;;;;;4.80;3.05;;;;;;;;;;5045807;28;20024;-73
2021/07/02 10:20:10;;;;;;;4.80;2.95;;;;;;;;;;5044669;28;20075;-73
2021/07/02 10:22:39;;;;;;;5.25;3.30;;;;;;;;;;5044299;28;20029;-73
2021/07/02 10:25:05;;;;;;;6.25;3.50;;;;;;;;;;5034612;28;20056;-73
2021/07/02 10:27:30;;;;;;;6.72;3.85;;;;;;;;;;5044759;28;20112;-73
2021/07/02 10:29:58;;;;;;;5.38;3.97;;;;;;;;;;5054678;28;20082;-72
2021/07/02 10:32:24;;;;;;;6.55;3.38;;;;;;;;;;5047386;28;20033;-71
2021/07/02 10:34:50;;;;;;;6.78;3.50;;;;;;;;;;5034595;28;20532;-73
2021/07/02 10:37:15;;;;;;;5.07;3.13;;;;;;;;;;5046353;28;20024;-72
2021/07/02 10:39:45;;;;;;;5.95;3.47;;;;;;;;;;5051543;28;20028;-72
2021/07/02 10:42:13;;;;;;;5.15;3.00;;;;;;;;;;5035072;28;20132;-73
2021/07/02 10:44:54;;;;;;;6.85;3.90;;;;;;;;;;5035974;28;20028;-73
2021/07/02 10:47:20;;;;;;;6.03;4.10;;;;;;;;;;5029526;28;20032;-71
2021/07/02 10:49:46;;;;;;;6.90;3.90;;;;;;;;;;5022070;28;20036;-74
2021/07/02 10:52:25;;;;;;;6.05;3.40;;;;;;;;;;5043991;28;20031;-74
2021/07/02 10:54:53;;;;;;;5.03;3.13;;;;;;;;;;5031775;28;20056;-73
2021/07/02 10:57:20;;;;;;;5.25;3.05;;;;;;;;;;5052656;28;20643;-73
2021/07/02 10:59:48;;;;;;;10.35;3.80;;;;;;;;;;5052456;28;20619;-73
2021/07/02 11:02:19;;;;;;;5.43;3.35;;;;;;;;;;5041475;28;20392;-73
2021/07/02 11:04:47;;;;;;;6.40;3.45;;;;;;;;;;5040889;28;20058;-73
2021/07/02 11:07:31;;;;;;;5.10;3.20;;;;;;;;;;5032072;28;20523;-73
2021/07/02 11:10:01;;;;;;;6.43;4.00;;;;;;;;;;5032755;28;20035;-72
2021/07/02 11:12:30;;;;;;;5.28;3.15;;;;;;;;;;5039537;28;20075;-72
2021/07/02 11:14:56;;;;;;;5.75;3.33;;;;;;;;;;5028275;28;20032;-73
2021/07/02 11:17:25;;;;;;;7.10;3.72;;;;;;;;;;5053650;28;20033;-74
2021/07/02 11:20:09;;;;;;;4.88;3.10;;;;;;;;;;5052422;28;20108;-74
2021/07/02 11:22:44;;;;;;;6.32;3.83;;;;;;;;;;5043744;28;20524;-73
2021/07/02 11:25:23;;;;;;;6.10;3.38;;;;;;;;;;5055217;28;20135;-73
2021/07/02 11:27:53;;;;;;;6.45;3.20;;;;;;;;;;5049941;28;20029;-74
2021/07/02 11:30:27;;;;;;;6.60;3.58;;;;;;;;;;5047584;28;20025;-74
2021/07/02 11:32:55;;;;;;;5.97;3.58;;;;;;;;;;5024603;28;20903;-73
2021/07/02 11:35:26;;;;;;;5.55;3.58;;;;;;;;;;5051329;28;20028;-74
2021/07/02 11:38:04;;;;;;;6.43;4.05;;;;;;;;;;5044458;28;20444;-73
2021/07/02 11:40:34;;;;;;;7.72;3.78;;;;;;;;;;5041101;28;20040;-74
2021/07/02 11:43:01;;;;;;;6.33;3.90;;;;;;;;;;5047309;28;20072;-74
2021/07/02 11:45:49;;;;;;;6.32;3.90;;;;;;;;;;5037967;28;21676;-74
2021/07/02 11:48:23;;;;;;;6.18;4.05;;;;;;;;;;5023102;28;20036;-76
2021/07/02 11:50:58;;;;;;;8.90;4.38;;;;;;;;;;5045632;28;20032;-75
2021/07/02 11:53:30;;;;;;;6.90;3.90;;;;;;;;;;5050077;28;20752;-76
2021/07/02 11:56:07;;;;;;;5.28;3.60;;;;;;;;;;5032243;28;20563;-76
2021/07/02 11:58:41;;;;;;;5.47;3.30;;;;;;;;;;5024655;28;20032;-75
2021/07/02 12:01:17;;;;;;;6.55;4.03;;;;;;;;;;5040041;28;20373;-75
2021/07/02 12:03:53;;;;;;;6.13;3.42;;;;;;;;;;5049116;28;20099;-75
2021/07/02 12:06:25;;;;;;;7.10;3.42;;;;;;;;;;5031603;28;20410;-75
2021/07/02 12:08:53;;;;;;;7.78;4.20;;;;;;;;;;5046988;28;20033;-75
2021/07/02 12:11:26;;;;;;;7.13;3.92;;;;;;;;;;5043138;28;20021;-77
2021/07/02 12:13:51;;;;;;;7.13;3.92;;;;;;;;;;5052685;28;20107;-75
2021/07/02 12:16:17;;;;;;;5.82;4.05;;;;;;;;;;5047900;28;20119;-76
2021/07/02 12:18:43;;;;;;;5.57;3.50;;;;;;;;;;5040981;28;20024;-76
2021/07/02 12:21:10;;;;;;;5.15;3.45;;;;;;;;;;5042565;28;20122;-77
2021/07/02 12:23:41;;;;;;;5.97;3.30;;;;;;;;;;5042976;28;20100;-75
2021/07/02 12:26:15;;;;;;;6.55;4.28;;;;;;;;;;5044200;28;20025;-74
2021/07/02 12:28:58;;;;;;;5.95;4.38;;;;;;;;;;5023992;28;20504;-75
2021/07/02 12:31:31;;;;;;;7.53;4.00;;;;;;;;;;5050279;28;20494;-74
2021/07/02 12:33:58;;;;;;;5.55;4.03;;;;;;;;;;5050772;28;20051;-75
2021/07/02 12:36:24;;;;;;;7.07;4.03;;;;;;;;;;5046628;28;20021;-76
2021/07/02 12:39:12;;;;;;;5.78;4.05;;;;;;;;;;5057970;28;20031;-75
2021/07/02 12:41:42;;;;;;;6.32;3.95;;;;;;;;;;5037034;28;20024;-76
2021/07/02 12:44:08;;;;;;;4.90;3.35;;;;;;;;;;5048251;28;20039;-76
2021/07/02 12:46:34;;;;;;;5.53;3.30;;;;;;;;;;5045491;28;20048;-74
2021/07/02 12:49:17;;;;;;;6.10;4.22;;;;;;;;;;5045892;28;20040;-75
2021/07/02 12:51:59;;;;;;;6.03;3.90;;;;;;;;;;5042307;28;20025;-74
2021/07/02 12:57:37;;;;;;;5.90;3.35;;;;;;;;;;5050508;28;20495;-75
2021/07/02 13:00:09;;;;;;;6.40;3.60;;;;;;;;;;5041957;28;20037;-74
2021/07/02 13:02:52;;;;;;;6.78;3.92;;;;;;;;;;5024645;28;20025;-75
2021/07/02 13:05:20;;;;;;;6.13;3.83;;;;;;;;;;5045381;28;20021;-75
2021/07/02 13:07:46;;;;;;;5.90;3.83;;;;;;;;;;5031925;28;20601;-74
2021/07/02 13:10:12;;;;;;;5.85;4.03;;;;;;;;;;5045996;28;20087;-75
2021/07/02 13:12:38;;;;;;;7.60;3.28;;;;;;;;;;5044629;28;20326;-75
2021/07/02 13:15:13;;;;;;;7.38;3.90;;;;;;;;;;5045518;28;20035;-74
2021/07/02 13:17:39;;;;;;;5.30;3.53;;;;;;;;;;5025711;28;20045;-74
2021/07/02 13:20:06;;;;;;;6.57;4.22;;;;;;;;;;5032917;28;20036;-74
2021/07/02 13:22:32;;;;;;;7.22;4.05;;;;;;;;;;5027075;28;20063;-75
2021/07/02 13:25:10;;;;;;;4.90;3.38;;;;;;;;;;5045590;28;20075;-75
2021/07/02 13:27:35;;;;;;;5.95;3.63;;;;;;;;;;5045446;28;20127;-75
2021/07/02 13:30:10;;;;;;;6.43;3.88;;;;;;;;;;5045621;28;20587;-75
2021/07/02 13:32:37;;;;;;;5.30;3.72;;;;;;;;;;5045400;28;20040;-74
2021/07/02 13:35:23;;;;;;;5.40;3.55;;;;;;;;;;5027091;28;20021;-74
2021/07/02 13:37:54;;;;;;;5.78;3.80;;;;;;;;;;5045667;28;20047;-75
2021/07/02 14:13:40;;;;;;;5.78;3.85;;;;;;;;;;5024593;28;20391;-73
2021/07/02 14:16:05;;;;;;;5.22;3.60;;;;;;;;;;5037670;28;20037;-73
2021/07/02 14:22:55;;;;;;;5.95;3.47;;;;;;;;;;5039097;28;20396;-74
2021/07/02 14:25:23;;;;;;;6.47;3.75;;;;;;;;;;5022233;28;20043;-74
2021/07/02 14:27:49;;;;;;;5.32;3.38;;;;;;;;;;4982715;28;20030;-73
2021/07/02 14:30:15;;;;;;;5.43;3.80;;;;;;;;;;4980478;28;20036;-73
2021/07/02 14:32:42;;;;;;;6.25;3.70;;;;;;;;;;4979304;28;20019;-73
2021/07/02 14:35:09;;;;;;;5.35;3.22;;;;;;;;;;4980724;28;20494;-73
2021/07/02 14:37:34;;;;;;;5.20;4.00;;;;;;;;;;4979651;28;20085;-73
2021/07/02 14:40:00;;;;;;;7.30;3.88;;;;;;;;;;4980268;28;20517;-73
2021/07/02 14:42:25;;;;;;;4.82;3.70;;;;;;;;;;4981628;28;20038;-73
2021/07/02 14:44:51;;;;;;;6.07;4.47;;;;;;;;;;4980950;28;20038;-73
2021/07/02 14:47:16;;;;;;;7.28;4.20;;;;;;;;;;4980498;28;20034;-73
2021/07/02 14:49:43;;;;;;;6.05;4.15;;;;;;;;;;4981381;28;20041;-73
2021/07/02 14:52:09;;;;;;;7.38;4.15;;;;;;;;;;4980504;28;20022;-73
2021/07/02 14:54:35;;;;;;;6.03;4.60;;;;;;;;;;4981569;28;20805;-74
2021/07/02 14:57:00;;;;;;;5.40;3.58;;;;;;;;;;4980163;28;20031;-74
2021/07/02 14:59:26;;;;;;;6.38;3.70;;;;;;;;;;4981881;28;20045;-74
2021/07/02 15:01:51;;;;;;;8.18;4.13;;;;;;;;;;4979353;28;20043;-74
2021/07/02 15:04:16;;;;;;;6.20;4.25;;;;;;;;;;4981287;28;20057;-74
2021/07/02 15:06:42;;;;;;;7.15;4.63;;;;;;;;;;4980320;28;21612;-74
2021/07/02 15:09:07;;;;;;;6.40;3.90;;;;;;;;;;4979055;28;20037;-74
2021/07/02 15:11:32;;;;;;;5.47;3.92;;;;;;;;;;4980457;28;20565;-74
2021/07/02 15:13:58;;;;;;;5.88;4.15;;;;;;;;;;4981197;28;20030;-74
2021/07/02 15:16:23;;;;;;;6.20;4.38;;;;;;;;;;4980206;28;20174;-74
2021/07/02 15:18:48;;;;;;;5.43;3.67;;;;;;;;;;4980265;28;20455;-74
2021/07/02 15:21:14;;;;;;;5.38;3.58;;;;;;;;;;4980409;28;20030;-74
2021/07/02 15:23:40;;;;;;;6.40;4.35;;;;;;;;;;4980256;28;20042;-74
2021/07/02 15:26:06;;;;;;;5.82;3.60;;;;;;;;;;4988317;28;20029;-75
2021/07/02 15:28:31;;;;;;;6.20;3.60;;;;;;;;;;4982339;28;20373;-74
2021/07/02 15:31:34;;;;;;;6.45;3.92;;;;;;;;;;4987141;28;20689;-74
2021/07/02 15:34:00;;;;;;;6.47;3.92;;;;;;;;;;4967549;28;20033;-74
2021/07/02 15:36:25;;;;;;;5.68;3.58;;;;;;;;;;4968184;28;20027;-74
2021/07/02 15:38:51;;;;;;;5.65;4.20;;;;;;;;;;4966693;28;20030;-75
2021/07/02 15:41:17;;;;;;;7.07;3.97;;;;;;;;;;4967558;28;20031;-74
2021/07/02 15:43:44;;;;;;;6.25;3.42;;;;;;;;;;4967559;28;20101;-75